Terminal Aerodrome Forecast
Issued by NWS

Current Version | Previous Version | Text Only | Print | Product List | Glossary On
Versions: 1 2 3 4 5 6 7 8 9 10 11 12 13 14 15 16 17 18 19 20 21 22 23 24 25 26 27 28
000
FTUS45 KSLC 292334
TAFSGU
TAF
KSGU 292334Z 3000/3024 VRB05KT P6SM SCT070 OVC120
     FM301200 05009KT P6SM VCSH SCT040 BKN070
     FM301500 03009KT 6SM -RA SCT025 BKN030
      AMD LTD TO CLD VIS AND WIND=

USA.gov is the U.S. government's official web portal to all federal, state and local government web resources and services.